createdAt,value
2018-04-04T00:02:21.101Z,1.30
2018-04-04T00:04:48.603Z,1.60
2018-04-04T00:07:16.253Z,1.50
2018-04-04T00:09:44.536Z,1.33
2018-04-04T00:12:12.056Z,1.43
2018-04-04T00:14:39.510Z,1.30
2018-04-04T00:17:07.020Z,1.43
2018-04-04T00:19:34.591Z,1.70
2018-04-04T00:22:02.134Z,1.60
2018-04-04T00:24:29.554Z,1.47
2018-04-04T00:26:57.059Z,1.50
2018-04-04T00:29:26.030Z,1.30
2018-04-04T00:31:53.533Z,1.10
2018-04-04T00:34:21.040Z,1.53
2018-04-04T00:36:48.521Z,1.10
2018-04-04T00:39:16.792Z,1.37
2018-04-04T00:41:44.261Z,0.93
2018-04-04T00:44:11.765Z,1.07
2018-04-04T00:46:39.227Z,1.20
2018-04-04T00:49:06.756Z,0.80
2018-04-04T00:51:34.221Z,1.63
2018-04-04T00:54:01.725Z,1.10
2018-04-04T00:56:29.199Z,0.80
2018-04-04T00:58:56.716Z,0.90
2018-04-04T01:01:24.199Z,0.90
2018-04-04T01:03:51.714Z,0.80
2018-04-04T01:06:19.345Z,0.90
2018-04-04T01:08:46.827Z,1.00
2018-04-04T01:11:14.447Z,1.13
2018-04-04T01:13:41.922Z,1.07
2018-04-04T01:16:09.375Z,1.80
2018-04-04T01:18:36.908Z,1.10
2018-04-04T01:21:04.416Z,1.27
2018-04-04T01:23:31.948Z,1.00
2018-04-04T01:26:00.227Z,1.47
2018-04-04T01:28:28.483Z,0.97
2018-04-04T01:30:55.970Z,1.17
2018-04-04T01:33:24.236Z,1.13
2018-04-04T01:35:51.806Z,1.40
2018-04-04T01:38:19.289Z,1.10
2018-04-04T01:40:47.558Z,1.00
2018-04-04T01:43:15.814Z,1.20
2018-04-04T01:45:43.324Z,1.20
2018-04-04T01:48:11.140Z,1.10
2018-04-04T01:50:38.763Z,1.00
2018-04-04T01:53:06.273Z,1.53
2018-04-04T01:55:33.804Z,1.10
2018-04-04T01:58:01.301Z,1.70
2018-04-04T02:00:28.774Z,1.40
2018-04-04T02:02:56.279Z,1.60
2018-04-04T02:05:23.779Z,1.50
2018-04-04T02:07:51.280Z,1.30
2018-04-04T02:10:18.733Z,1.57
2018-04-04T02:12:46.218Z,1.40
2018-04-04T02:15:14.458Z,1.20
2018-04-04T02:17:42.198Z,1.40
2018-04-04T02:20:09.908Z,1.87
2018-04-04T02:22:37.404Z,1.20
2018-04-04T02:25:04.880Z,1.37
2018-04-04T02:27:32.391Z,1.43
2018-04-04T02:29:59.794Z,1.60
2018-04-04T02:32:27.307Z,1.40
2018-04-04T02:34:54.791Z,1.77
2018-04-04T02:37:23.266Z,1.57
2018-04-04T02:39:50.790Z,1.73
2018-04-04T02:42:18.255Z,2.03
2018-04-04T02:44:45.749Z,2.50
2018-04-04T02:47:13.218Z,3.00
2018-04-04T02:49:40.739Z,3.10
2018-04-04T02:52:08.237Z,3.50
2018-04-04T02:54:35.702Z,4.20
2018-04-04T02:57:03.228Z,3.30
2018-04-04T02:59:31.471Z,3.70
2018-04-04T03:01:59.740Z,5.17
2018-04-04T03:04:27.246Z,5.63
2018-04-04T03:06:54.799Z,5.70
2018-04-04T03:09:22.292Z,5.90
2018-04-04T03:11:49.756Z,4.40
2018-04-04T03:14:17.312Z,3.80
2018-04-04T03:16:44.871Z,3.63
2018-04-04T03:19:12.324Z,3.83
2018-04-04T03:21:39.791Z,3.50
2018-04-04T03:24:07.277Z,3.67
2018-04-04T03:26:34.836Z,3.07
2018-04-04T03:29:02.280Z,3.00
2018-04-04T03:31:29.892Z,2.60
2018-04-04T03:33:58.361Z,2.80
2018-04-04T03:36:25.930Z,2.50
2018-04-04T03:38:53.385Z,2.50
2018-04-04T03:41:20.842Z,2.50
2018-04-04T03:43:48.354Z,2.73
2018-04-04T03:46:15.873Z,2.50
2018-04-04T03:48:43.725Z,2.23
2018-04-04T03:51:11.213Z,2.47
2018-04-04T03:53:38.769Z,2.53
2018-04-04T03:56:06.198Z,2.80
2018-04-04T03:58:33.708Z,2.33
2018-04-04T04:01:01.210Z,3.20
2018-04-04T04:03:28.668Z,2.13
2018-04-04T04:05:56.224Z,3.20
2018-04-04T04:08:23.669Z,2.93
2018-04-04T04:10:51.922Z,2.40
2018-04-04T04:13:20.196Z,2.57
2018-04-04T04:15:47.681Z,2.67
2018-04-04T04:18:15.108Z,2.90
2018-04-04T04:20:42.726Z,3.10
2018-04-04T04:23:10.966Z,2.47
2018-04-04T04:25:38.520Z,3.50
2018-04-04T04:28:06.003Z,3.47
2018-04-04T04:30:33.739Z,4.00
2018-04-04T04:33:01.229Z,3.60
2018-04-04T04:35:28.696Z,3.10
2018-04-04T04:37:56.230Z,3.17
2018-04-04T04:40:23.905Z,2.87
2018-04-04T04:42:51.371Z,3.87
2018-04-04T04:45:18.866Z,3.33
2018-04-04T04:47:46.314Z,3.70
2018-04-04T04:50:13.845Z,3.60
2018-04-04T04:52:41.347Z,3.00
2018-04-04T04:55:08.905Z,3.70
2018-04-04T04:57:36.393Z,3.53
2018-04-04T05:00:03.952Z,3.47
2018-04-04T05:02:32.224Z,2.67
2018-04-04T05:04:59.703Z,2.50
2018-04-04T05:07:27.958Z,3.07
2018-04-04T05:09:56.302Z,2.63
2018-04-04T05:12:23.787Z,3.20
2018-04-04T05:14:51.939Z,3.00
2018-04-04T05:17:19.355Z,3.57
2018-04-04T05:19:47.611Z,3.60
2018-04-04T05:22:15.120Z,3.43
2018-04-04T05:24:42.628Z,3.70
2018-04-04T05:27:10.273Z,4.03
2018-04-04T05:29:37.806Z,3.80
2018-04-04T05:32:05.940Z,2.70
2018-04-04T05:34:33.455Z,4.20
2018-04-04T05:37:00.955Z,2.77
2018-04-04T05:39:28.435Z,3.43
2018-04-04T05:41:56.125Z,3.07
2018-04-04T05:44:23.584Z,3.30
2018-04-04T05:46:51.100Z,2.50
2018-04-04T05:49:18.592Z,2.20
2018-04-04T05:51:46.098Z,2.23
2018-04-04T05:54:13.600Z,2.40
2018-04-04T05:56:41.128Z,2.17
2018-04-04T05:59:08.589Z,2.50
2018-04-04T06:01:36.051Z,2.37
2018-04-04T06:04:03.548Z,2.13
2018-04-04T06:06:31.020Z,2.63
2018-04-04T06:08:58.565Z,2.13
2018-04-04T06:11:26.026Z,2.10
2018-04-04T06:13:54.370Z,1.80
2018-04-04T06:16:21.776Z,1.87
2018-04-04T06:18:49.321Z,2.83
2018-04-04T06:21:17.597Z,2.17
2018-04-04T06:23:45.266Z,2.17
2018-04-04T06:26:12.757Z,2.30
2018-04-04T06:28:40.239Z,2.17
2018-04-04T06:31:07.727Z,2.40
2018-04-04T06:33:36.077Z,1.80
2018-04-04T06:36:03.578Z,1.87
2018-04-04T06:38:30.973Z,1.80
2018-04-04T06:40:58.525Z,2.00
2018-04-04T06:43:26.027Z,2.30
2018-04-04T06:45:54.940Z,1.50
2018-04-04T06:48:22.445Z,1.60
2018-04-04T06:50:49.917Z,1.97
2018-04-04T06:53:17.400Z,1.53
2018-04-04T06:55:44.932Z,2.00
2018-04-04T06:58:12.431Z,1.73
2018-04-04T07:00:39.916Z,1.83
2018-04-04T07:03:07.990Z,1.63
2018-04-04T07:05:35.476Z,1.83
2018-04-04T07:08:03.862Z,1.77
2018-04-04T07:10:31.326Z,1.97
2018-04-04T07:12:58.837Z,2.10
2018-04-04T07:15:26.396Z,2.10
2018-04-04T07:17:53.925Z,2.03
2018-04-04T07:20:21.447Z,2.30
2018-04-04T07:22:48.972Z,2.20
2018-04-04T07:25:16.473Z,2.27
2018-04-04T07:27:44.437Z,1.67
2018-04-04T07:30:12.148Z,2.53
2018-04-04T07:32:39.571Z,2.10
2018-04-04T07:35:07.090Z,2.27
2018-04-04T07:37:34.589Z,1.83
2018-04-04T07:40:02.465Z,2.30
2018-04-04T07:42:29.991Z,1.87
2018-04-04T07:44:58.653Z,2.00
2018-04-04T07:47:26.145Z,2.63
2018-04-04T07:49:53.669Z,1.90
2018-04-04T07:52:21.156Z,1.83
2018-04-04T07:54:48.679Z,2.07
2018-04-04T07:57:16.194Z,1.97
2018-04-04T07:59:43.770Z,2.30
2018-04-04T08:02:11.154Z,1.83
2018-04-04T08:04:38.646Z,2.47
2018-04-04T08:07:07.007Z,1.97
2018-04-04T08:09:34.637Z,2.10
2018-04-04T08:12:02.935Z,2.60
2018-04-04T08:14:30.415Z,3.03
2018-04-04T08:16:57.944Z,3.50
2018-04-04T08:19:25.411Z,1.70
2018-04-04T08:21:52.977Z,1.40
2018-04-04T08:24:20.463Z,1.90
2018-04-04T08:26:48.022Z,1.50
2018-04-04T08:29:15.476Z,1.00
2018-04-04T08:31:42.954Z,1.33
2018-04-04T08:34:10.620Z,1.10
2018-04-04T08:36:38.093Z,1.00
2018-04-04T08:39:05.652Z,1.23
2018-04-04T08:41:33.157Z,1.00
2018-04-04T08:44:00.629Z,1.00
2018-04-04T08:46:28.206Z,1.00
2018-04-04T08:48:56.493Z,0.90
2018-04-04T08:51:23.999Z,1.57
2018-04-04T08:53:51.504Z,1.70
2018-04-04T08:56:19.038Z,0.93
2018-04-04T08:58:47.365Z,1.70
2018-04-04T09:01:15.684Z,1.60
2018-04-04T09:03:43.163Z,1.53
2018-04-04T09:06:11.500Z,1.37
2018-04-04T09:08:40.390Z,1.93
2018-04-04T09:11:07.940Z,1.97
2018-04-04T09:13:35.657Z,1.83
2018-04-04T09:16:04.058Z,1.80
2018-04-04T09:18:32.385Z,1.67
2018-04-04T09:20:59.938Z,1.80
2018-04-04T09:23:27.415Z,1.63
2018-04-04T09:25:55.013Z,1.50
2018-04-04T09:28:22.542Z,1.50
2018-04-04T09:30:50.869Z,1.60
2018-04-04T09:33:19.103Z,1.60
2018-04-04T09:35:46.657Z,1.67
2018-04-04T09:38:14.224Z,2.10
2018-04-04T09:40:41.765Z,1.63
2018-04-04T09:43:09.290Z,2.07
2018-04-04T09:45:36.776Z,1.30
2018-04-04T09:48:04.318Z,1.43
2018-04-04T09:50:32.123Z,1.70
2018-04-04T09:52:59.643Z,1.87
2018-04-04T09:55:27.117Z,1.70
2018-04-04T09:57:55.440Z,1.80
2018-04-04T10:00:23.013Z,2.67
2018-04-04T10:02:50.547Z,1.43
2018-04-04T10:05:18.763Z,1.80
2018-04-04T10:07:46.329Z,1.80
2018-04-04T10:10:14.024Z,1.80
2018-04-04T10:12:42.358Z,1.50
2018-04-04T10:15:10.802Z,1.83
2018-04-04T10:17:38.305Z,1.40
2018-04-04T10:20:05.789Z,1.20
2018-04-04T10:22:33.334Z,1.63
2018-04-04T10:25:00.792Z,1.20
2018-04-04T10:27:28.362Z,1.80
2018-04-04T10:29:55.919Z,1.53
2018-04-04T10:32:23.412Z,1.17
2018-04-04T10:34:50.942Z,1.50
2018-04-04T10:37:18.401Z,1.53
2018-04-04T10:39:46.565Z,1.60
2018-04-04T10:42:14.920Z,1.40
2018-04-04T10:44:42.382Z,1.60
2018-04-04T10:47:09.914Z,1.20
2018-04-04T10:49:37.405Z,1.60
2018-04-04T10:52:04.942Z,1.77
2018-04-04T10:54:32.461Z,1.73
2018-04-04T10:57:00.735Z,1.50
2018-04-04T10:59:29.037Z,1.10
2018-04-04T11:01:56.547Z,1.53
2018-04-04T11:04:24.217Z,1.30
2018-04-04T11:06:51.753Z,1.60
2018-04-04T11:09:19.308Z,1.30
2018-04-04T11:11:46.788Z,1.30
2018-04-04T11:14:14.412Z,1.20
2018-04-04T11:16:41.962Z,1.50
2018-04-04T11:19:10.167Z,1.30
2018-04-04T11:21:38.330Z,0.90
2018-04-04T11:24:05.848Z,1.40
2018-04-04T11:26:33.412Z,1.30
2018-04-04T11:29:00.970Z,1.30
2018-04-04T11:31:28.459Z,0.90
2018-04-04T11:33:56.026Z,1.33
2018-04-04T11:36:23.586Z,1.40
2018-04-04T11:38:51.233Z,1.33
2018-04-04T11:41:18.793Z,1.80
2018-04-04T11:43:46.472Z,1.23
2018-04-04T11:46:15.506Z,0.90
2018-04-04T11:48:43.860Z,1.10
2018-04-04T11:51:11.660Z,0.93
2018-04-04T11:53:39.248Z,0.80
2018-04-04T11:56:06.887Z,1.00
2018-04-04T11:58:35.247Z,1.30
2018-04-04T12:01:02.866Z,1.10
2018-04-04T12:03:30.618Z,0.90
2018-04-04T12:05:58.253Z,1.13
2018-04-04T12:08:25.879Z,1.10
2018-04-04T12:10:53.473Z,1.07
2018-04-04T12:13:21.063Z,0.83
2018-04-04T12:15:49.431Z,0.80
2018-04-04T12:18:17.041Z,0.60
2018-04-04T12:20:44.703Z,1.03
2018-04-04T12:23:13.208Z,1.00
2018-04-04T12:25:40.842Z,1.03
2018-04-04T12:28:09.221Z,1.20
2018-04-04T12:30:37.651Z,0.60
2018-04-04T12:33:05.329Z,0.80
2018-04-04T12:35:32.931Z,0.70
2018-04-04T12:38:01.292Z,0.90
2018-04-04T12:40:28.902Z,0.97
2018-04-04T12:42:56.494Z,0.73
2018-04-04T12:45:24.163Z,0.90
2018-04-04T12:47:51.750Z,0.70
2018-04-04T12:50:20.073Z,0.80
2018-04-04T12:52:47.734Z,0.83
2018-04-04T12:55:16.140Z,0.70
2018-04-04T12:57:43.725Z,1.00
2018-04-04T13:00:11.284Z,0.90
2018-04-04T13:02:38.862Z,1.03
2018-04-04T13:05:06.471Z,0.70
2018-04-04T13:07:34.941Z,0.80
2018-04-04T13:10:02.537Z,0.80
2018-04-04T13:12:30.316Z,0.90
2018-04-04T13:14:57.937Z,1.47
2018-04-04T13:17:25.388Z,0.93
2018-04-04T13:19:52.907Z,1.07
2018-04-04T13:22:20.393Z,0.70
2018-04-04T13:24:47.938Z,0.73
2018-04-04T13:27:15.487Z,0.70
2018-04-04T13:29:43.920Z,0.90
2018-04-04T13:32:11.401Z,1.20
2018-04-04T13:34:38.899Z,1.00
2018-04-04T13:37:06.379Z,0.90
2018-04-04T13:39:35.027Z,1.20
2018-04-04T13:42:03.325Z,1.63
2018-04-04T13:44:30.782Z,1.40
2018-04-04T13:46:59.098Z,1.10
2018-04-04T13:49:26.585Z,1.70
2018-04-04T13:51:54.053Z,1.17
2018-04-04T13:54:21.613Z,1.70
2018-04-04T13:56:49.117Z,1.37
2018-04-04T13:59:17.384Z,1.20
2018-04-04T14:01:44.917Z,1.40
2018-04-04T14:04:12.416Z,1.73
2018-04-04T14:06:39.881Z,1.30
2018-04-04T14:09:08.180Z,1.77
2018-04-04T14:11:36.437Z,1.30
2018-04-04T14:14:03.948Z,1.83
2018-04-04T14:16:31.412Z,1.67
2018-04-04T14:18:58.934Z,1.63
2018-04-04T14:21:27.237Z,1.23
2018-04-04T14:23:54.743Z,1.60
2018-04-04T14:26:22.198Z,1.57
2018-04-04T14:28:49.744Z,1.97
2018-04-04T14:31:17.247Z,1.90
2018-04-04T14:33:45.531Z,1.53
2018-04-04T14:36:13.010Z,1.80
2018-04-04T14:38:41.267Z,1.30
2018-04-04T14:41:08.729Z,1.00
2018-04-04T14:43:36.237Z,1.40
2018-04-04T14:46:03.717Z,1.37
2018-04-04T14:48:31.232Z,1.73
2018-04-04T14:50:58.824Z,1.80
2018-04-04T14:53:26.288Z,1.50
2018-04-04T14:55:54.498Z,1.03
2018-04-04T14:58:21.995Z,1.40
2018-04-04T15:00:49.487Z,1.10
2018-04-04T15:03:17.113Z,1.13
2018-04-04T15:05:44.663Z,1.17
2018-04-04T15:08:12.183Z,1.17
2018-04-04T15:10:39.765Z,1.90
2018-04-04T15:13:07.249Z,1.27
2018-04-04T15:15:34.734Z,1.20
2018-04-04T15:18:02.259Z,1.30
2018-04-04T15:20:30.127Z,1.10
2018-04-04T15:22:57.649Z,1.20
2018-04-04T15:25:25.510Z,0.93
2018-04-04T15:27:52.961Z,1.13
2018-04-04T15:30:20.897Z,1.03
2018-04-04T15:32:48.445Z,1.03
2018-04-04T15:35:16.009Z,1.37
2018-04-04T15:37:43.418Z,0.90
2018-04-04T15:40:10.976Z,1.10
2018-04-04T15:42:38.474Z,1.20
2018-04-04T15:45:05.907Z,1.27
2018-04-04T15:47:33.461Z,1.40
2018-04-04T15:50:00.957Z,1.20
2018-04-04T15:52:29.274Z,1.03
2018-04-04T15:54:57.437Z,0.90
2018-04-04T15:57:24.893Z,1.10
2018-04-04T15:59:53.054Z,1.20
2018-04-04T16:02:20.480Z,1.13
2018-04-04T16:04:47.976Z,1.27
2018-04-04T16:07:16.233Z,1.00
2018-04-04T16:09:43.724Z,1.00
2018-04-04T16:12:11.514Z,1.10
2018-04-04T16:14:39.037Z,1.60
2018-04-04T16:17:06.684Z,0.87
2018-04-04T16:19:34.170Z,1.40
2018-04-04T16:22:01.759Z,2.40
2018-04-04T16:24:29.288Z,1.47
2018-04-04T16:26:56.832Z,1.80
2018-04-04T16:29:24.321Z,1.07
2018-04-04T16:31:51.836Z,1.10
2018-04-04T16:34:19.352Z,1.17
2018-04-04T16:36:46.835Z,1.07
2018-04-04T16:39:15.104Z,1.10
2018-04-04T16:41:43.377Z,1.53
2018-04-04T16:44:10.861Z,1.20
2018-04-04T16:46:38.398Z,1.10
2018-04-04T16:49:06.887Z,0.93
2018-04-04T16:51:34.317Z,0.90
2018-04-04T16:54:01.828Z,1.13
2018-04-04T16:56:30.129Z,1.10
2018-04-04T16:58:57.593Z,1.03
2018-04-04T17:01:25.108Z,0.97
2018-04-04T17:03:52.651Z,0.80
2018-04-04T17:06:20.107Z,0.83
2018-04-04T17:08:52.522Z,0.73
2018-04-04T17:11:20.639Z,1.23
2018-04-04T17:13:48.509Z,0.83
2018-04-04T17:16:16.033Z,1.70
2018-04-04T17:18:43.542Z,1.50
2018-04-04T17:21:11.009Z,1.33
2018-04-04T17:23:38.568Z,1.40
2018-04-04T17:26:07.798Z,1.30
2018-04-04T17:28:35.337Z,1.10
2018-04-04T17:31:02.911Z,1.40
2018-04-04T17:33:31.819Z,1.20
2018-04-04T17:35:59.305Z,1.77
2018-04-04T17:38:26.771Z,1.10
2018-04-04T17:40:54.365Z,1.20
2018-04-04T17:43:22.651Z,1.50
2018-04-04T17:45:51.212Z,1.33
2018-04-04T17:48:18.814Z,1.20
2018-04-04T17:50:46.341Z,1.23
2018-04-04T17:53:14.643Z,1.03
2018-04-04T17:55:42.869Z,1.30
2018-04-04T17:58:10.421Z,1.43
2018-04-04T18:00:38.504Z,1.30
2018-04-04T18:03:05.969Z,1.40
2018-04-04T18:05:33.841Z,1.27
2018-04-04T18:08:01.546Z,1.50
2018-04-04T18:10:29.905Z,1.90
2018-04-04T18:12:57.370Z,1.43
2018-04-04T18:15:24.907Z,2.20
2018-04-04T18:17:52.524Z,1.50
2018-04-04T18:20:19.948Z,2.97
2018-04-04T18:22:47.506Z,2.07
2018-04-04T18:25:15.068Z,1.93
2018-04-04T18:27:42.609Z,2.10
2018-04-04T18:30:10.144Z,2.50
2018-04-04T18:32:37.669Z,3.37
2018-04-04T18:35:05.155Z,2.67
2018-04-04T18:37:32.671Z,2.20
2018-04-04T18:40:00.200Z,2.00
2018-04-04T18:42:27.743Z,1.80
2018-04-04T18:44:55.241Z,2.60
2018-04-04T18:47:22.948Z,2.27
2018-04-04T18:49:50.442Z,1.77
2018-04-04T18:52:18.371Z,2.00
2018-04-04T18:54:45.844Z,2.43
2018-04-04T18:57:13.308Z,2.47
2018-04-04T18:59:40.852Z,2.50
2018-04-04T19:02:08.430Z,2.50
2018-04-04T19:04:37.060Z,2.73
2018-04-04T19:07:04.552Z,2.83
2018-04-04T19:09:32.895Z,3.67
2018-04-04T19:12:00.386Z,4.60
2018-04-04T19:14:27.883Z,2.83
2018-04-04T19:16:55.467Z,3.70
2018-04-04T19:19:22.954Z,3.07
2018-04-04T19:21:50.490Z,3.73
2018-04-04T19:24:18.037Z,2.80
2018-04-04T19:26:45.612Z,2.57
2018-04-04T19:29:13.111Z,3.70
2018-04-04T19:31:40.818Z,2.40
2018-04-04T19:34:08.804Z,3.23
2018-04-04T19:36:36.334Z,3.20
2018-04-04T19:39:04.604Z,2.83
2018-04-04T19:41:32.834Z,3.13
2018-04-04T19:44:00.404Z,2.93
2018-04-04T19:46:28.166Z,2.93
2018-04-04T19:48:55.593Z,3.30
2018-04-04T19:51:23.871Z,2.67
2018-04-04T19:53:51.374Z,2.93
2018-04-04T19:56:18.895Z,2.70
2018-04-04T19:58:47.201Z,2.77
2018-04-04T20:01:14.763Z,3.07
2018-04-04T20:03:42.227Z,2.63
2018-04-04T20:06:09.693Z,3.10
2018-04-04T20:08:37.210Z,3.70
2018-04-04T20:11:04.714Z,3.03
2018-04-04T20:13:33.032Z,3.07
2018-04-04T20:16:00.524Z,3.67
2018-04-04T20:18:28.114Z,3.67
2018-04-04T20:20:55.549Z,3.50
2018-04-04T20:23:23.037Z,3.20
2018-04-04T20:25:50.560Z,3.40
2018-04-04T20:28:18.082Z,3.87
2018-04-04T20:30:45.596Z,3.77
2018-04-04T20:33:13.111Z,3.53
2018-04-04T20:35:40.622Z,3.20
2018-04-04T20:38:08.120Z,2.83
2018-04-04T20:40:38.071Z,2.93
2018-04-04T20:43:05.600Z,3.03
2018-04-04T20:45:33.177Z,2.20
2018-04-04T20:48:00.673Z,2.60
2018-04-04T20:50:28.155Z,2.57
2018-04-04T20:52:55.714Z,2.33
2018-04-04T20:55:23.269Z,2.27
2018-04-04T20:57:50.731Z,2.27
2018-04-04T21:00:18.282Z,2.37
2018-04-04T21:02:45.799Z,2.20
2018-04-04T21:05:13.357Z,2.53
2018-04-04T21:07:52.615Z,2.70
2018-04-04T21:10:20.175Z,2.27
2018-04-04T21:12:47.655Z,2.73
2018-04-04T21:15:15.202Z,2.40
2018-04-04T21:17:42.661Z,2.27
2018-04-04T21:20:10.134Z,2.03
2018-04-04T21:22:37.663Z,2.73
2018-04-04T21:25:05.975Z,2.30
2018-04-04T21:27:33.490Z,2.27
2018-04-04T21:30:01.046Z,1.90
2018-04-04T21:32:28.545Z,2.47
2018-04-04T21:34:56.476Z,1.97
2018-04-04T21:37:23.938Z,2.53
2018-04-04T21:39:51.481Z,2.20
2018-04-04T21:42:18.974Z,2.30
2018-04-04T21:44:46.527Z,2.10
2018-04-04T21:47:13.999Z,1.60
2018-04-04T21:49:41.488Z,1.67
2018-04-04T21:52:08.951Z,1.87
2018-04-04T21:54:37.226Z,1.73
2018-04-04T21:57:05.528Z,2.37
2018-04-04T21:59:33.925Z,1.93
2018-04-04T22:02:02.110Z,2.33
2018-04-04T22:04:29.461Z,2.20
2018-04-04T22:06:56.997Z,2.10
2018-04-04T22:09:25.279Z,2.33
2018-04-04T22:11:53.576Z,1.73
2018-04-04T22:14:21.155Z,1.73
2018-04-04T22:16:48.975Z,2.60
2018-04-04T22:19:16.470Z,2.00
2018-04-04T22:21:43.945Z,2.07
2018-04-04T22:24:11.476Z,1.80
2018-04-04T22:26:39.778Z,1.60
2018-04-04T22:29:07.498Z,2.20
2018-04-04T22:31:34.966Z,2.03
2018-04-04T22:34:02.439Z,2.10
2018-04-04T22:36:29.994Z,1.90
2018-04-04T22:38:57.475Z,2.00
2018-04-04T22:41:24.983Z,2.30
2018-04-04T22:43:52.459Z,1.97
2018-04-04T22:46:19.963Z,1.97
2018-04-04T22:48:48.239Z,2.13
2018-04-04T22:51:16.485Z,1.67
2018-04-04T22:53:43.962Z,1.90
2018-04-04T22:56:12.440Z,1.90
2018-04-04T22:58:40.174Z,1.93
2018-04-04T23:01:08.444Z,2.10
2018-04-04T23:03:35.993Z,1.63
2018-04-04T23:06:03.493Z,2.10
2018-04-04T23:08:31.581Z,1.90
2018-04-04T23:10:58.489Z,2.17
2018-04-04T23:13:26.036Z,2.10
2018-04-04T23:15:54.292Z,2.87
2018-04-04T23:18:22.180Z,2.23
2018-04-04T23:20:49.626Z,2.53
2018-04-04T23:23:17.142Z,2.47
2018-04-04T23:25:44.629Z,2.90
2018-04-04T23:28:12.157Z,2.60
2018-04-04T23:30:40.401Z,2.53
2018-04-04T23:33:07.944Z,3.30
2018-04-04T23:35:35.407Z,2.70
2018-04-04T23:38:02.927Z,2.93
2018-04-04T23:40:30.431Z,2.90
2018-04-04T23:42:58.152Z,3.80
2018-04-04T23:45:25.596Z,4.30
2018-04-04T23:47:53.117Z,4.00
2018-04-04T23:50:20.580Z,4.40
2018-04-04T23:52:48.087Z,2.23
2018-04-04T23:55:17.004Z,5.37
2018-04-04T23:57:44.497Z,4.00
